Time;durP1;ratioP1;P1;durP2;ratioP2;P2;SDS_P1;SDS_P2;PMS_P1;PMS_P2;Temp;Humidity;BMP_temperature;BMP_pressure;BME280_temperature;BME280_humidity;BME280_pressure;Samples;Min_cycle;Max_cycle;Signal;HPM_P1;HPM_P2
2022/12/11 03:09:04;;;;;;;112.60;36.10;;;;;;;1.12;100.00;98224.25;1808890;78;22945;-76
2022/12/11 03:11:31;;;;;;;67.53;27.22;;;;;;;1.26;100.00;98227.38;1764074;80;21100;-76
2022/12/11 03:13:58;;;;;;;33.88;21.25;;;;;;;1.49;100.00;98225.25;1753423;82;21105;-77
2022/12/11 03:16:40;;;;;;;36.70;19.62;;;;;;;1.72;100.00;98220.69;1739055;81;21150;-77
2022/12/11 03:19:24;;;;;;;24.12;15.13;;;;;;;1.89;100.00;98222.75;1717134;82;21010;-77
2022/12/11 03:22:11;;;;;;;35.35;15.50;;;;;;;2.08;100.00;98226.72;1691836;83;21689;-77
2022/12/11 03:25:01;;;;;;;20.55;13.08;;;;;;;2.18;100.00;98223.31;1660200;83;21989;-77
2022/12/11 03:27:45;;;;;;;27.98;13.62;;;;;;;2.34;100.00;98227.22;1707220;82;21042;-76
2022/12/11 03:30:16;;;;;;;21.95;13.88;;;;;;;2.40;100.00;98236.96;1717656;82;20984;-77
2022/12/11 03:32:53;;;;;;;22.27;13.50;;;;;;;2.51;100.00;98245.91;1718271;83;21098;-77
2022/12/11 03:35:28;;;;;;;21.52;14.25;;;;;;;2.63;100.00;98248.41;1707302;84;20979;-77
2022/12/11 03:37:56;;;;;;;26.50;15.38;;;;;;;2.70;100.00;98251.69;1686267;84;21067;-77
2022/12/11 03:40:24;;;;;;;24.98;15.72;;;;;;;2.74;100.00;98248.77;1716409;82;20987;-77
2022/12/11 03:42:52;;;;;;;24.87;15.72;;;;;;;2.80;100.00;98255.83;1718932;81;21004;-77
2022/12/11 03:45:19;;;;;;;24.27;15.23;;;;;;;2.86;100.00;98261.50;1710566;82;21019;-77
2022/12/11 03:47:46;;;;;;;33.28;16.25;;;;;;;2.88;100.00;98260.17;1718531;82;21026;-77
2022/12/11 03:50:15;;;;;;;25.90;14.93;;;;;;;2.87;100.00;98259.10;1720608;82;21509;-77
2022/12/11 03:52:43;;;;;;;34.73;15.43;;;;;;;2.91;100.00;98248.90;1707594;82;21009;-77
2022/12/11 03:55:11;;;;;;;26.52;14.00;;;;;;;2.94;100.00;98259.69;1679136;84;21331;-76
2022/12/11 03:57:38;;;;;;;19.85;13.58;;;;;;;2.94;100.00;98255.09;1649095;85;21098;-76
2022/12/11 04:00:09;;;;;;;21.30;13.95;;;;;;;2.97;100.00;98264.02;1690739;85;20988;-76
2022/12/11 04:02:40;;;;;;;46.92;14.87;;;;;;;3.01;100.00;98265.66;1686701;83;21134;-76
2022/12/11 04:05:08;;;;;;;24.27;14.95;;;;;;;2.99;100.00;98242.23;1686598;84;21014;-76
2022/12/11 04:07:35;;;;;;;42.00;15.65;;;;;;;2.97;100.00;98241.70;1686375;83;21102;-76
2022/12/11 04:10:03;;;;;;;59.13;18.35;;;;;;;3.00;100.00;98246.55;1666591;85;20998;-76
2022/12/11 04:12:30;;;;;;;32.38;15.58;;;;;;;3.03;100.00;98243.34;1692755;83;21576;-76
2022/12/11 04:15:03;;;;;;;25.37;14.07;;;;;;;3.03;100.00;98242.00;1695869;84;21012;-76
2022/12/11 04:26:09;;;;;;;45.33;14.30;;;;;;;3.00;100.00;98235.80;1735542;81;21049;-76
2022/12/11 04:28:36;;;;;;;55.05;14.23;;;;;;;3.05;100.00;98230.44;1727743;82;21050;-76
2022/12/11 04:31:03;;;;;;;24.52;13.32;;;;;;;3.01;100.00;98223.98;1729796;81;21002;-76
2022/12/11 04:33:30;;;;;;;30.37;13.25;;;;;;;2.99;100.00;98213.48;1733977;81;21037;-76
2022/12/11 04:35:58;;;;;;;37.90;13.35;;;;;;;3.00;100.00;98219.14;1729333;81;21066;-76
2022/12/11 04:38:26;;;;;;;61.33;14.13;;;;;;;3.04;100.00;98218.09;1733515;82;21051;-76
2022/12/11 04:41:00;;;;;;;37.78;13.95;;;;;;;3.03;100.00;98213.77;1729892;81;21107;-76
2022/12/11 04:43:27;;;;;;;46.13;13.80;;;;;;;3.05;100.00;98212.18;1698946;83;21091;-76
2022/12/11 04:46:07;;;;;;;30.02;13.80;;;;;;;3.08;100.00;98205.75;1701546;82;21054;-76
2022/12/11 04:48:35;;;;;;;17.02;12.15;;;;;;;3.07;100.00;98200.62;1662307;85;21454;-76
2022/12/11 04:51:02;;;;;;;23.70;12.33;;;;;;;3.06;100.00;98190.39;1706206;83;22354;-76
2022/12/11 04:53:29;;;;;;;44.90;13.40;;;;;;;3.10;100.00;98186.65;1703129;83;21134;-76
2022/12/11 04:55:56;;;;;;;27.07;13.35;;;;;;;3.11;100.00;98182.37;1703071;82;21118;-75
2022/12/11 04:58:24;;;;;;;23.40;13.83;;;;;;;3.12;100.00;98187.22;1703313;83;21109;-76
2022/12/11 05:00:51;;;;;;;41.15;13.18;;;;;;;3.12;100.00;98171.86;1670519;84;21093;-75
2022/12/11 05:03:18;;;;;;;31.12;12.25;;;;;;;3.18;100.00;98165.47;1695834;83;21033;-75
2022/12/11 05:05:52;;;;;;;25.05;12.00;;;;;;;3.17;100.00;98165.18;1727819;81;21027;-75
2022/12/11 05:08:20;;;;;;;26.77;12.58;;;;;;;3.15;100.00;98157.92;1729305;82;21066;-75
2022/12/11 05:11:02;;;;;;;35.08;13.30;;;;;;;3.19;100.00;98164.37;1733531;81;21019;-75
2022/12/11 05:13:30;;;;;;;22.73;13.28;;;;;;;3.19;100.00;98160.90;1735953;81;21028;-75
2022/12/11 05:15:57;;;;;;;17.73;11.75;;;;;;;3.17;100.00;98157.64;1732214;81;21051;-75
2022/12/11 05:18:25;;;;;;;25.60;12.43;;;;;;;3.20;100.00;98152.55;1737828;82;21440;-75
2022/12/11 05:20:56;;;;;;;42.62;12.78;;;;;;;3.21;100.00;98143.95;1736206;81;21047;-75
2022/12/11 05:23:24;;;;;;;45.90;13.50;;;;;;;3.22;100.00;98151.77;1739403;81;21494;-75
2022/12/11 05:25:55;;;;;;;46.40;13.40;;;;;;;3.22;100.00;98149.61;1734546;81;20980;-75
2022/12/11 05:28:23;;;;;;;40.25;12.40;;;;;;;3.21;100.00;98144.77;1749632;81;20991;-75
2022/12/11 05:31:02;;;;;;;32.67;11.83;;;;;;;3.25;100.00;98146.39;1726472;82;20980;-75
2022/12/11 05:33:29;;;;;;;65.17;11.65;;;;;;;3.26;100.00;98146.11;1720344;81;21490;-75
2022/12/11 05:35:56;;;;;;;36.25;13.05;;;;;;;3.24;100.00;98148.80;1737408;81;21055;-75
2022/12/11 05:38:23;;;;;;;18.98;12.75;;;;;;;3.29;100.00;98142.11;1726420;82;21051;-75
2022/12/11 05:41:00;;;;;;;47.60;12.50;;;;;;;3.30;100.00;98141.83;1733361;81;20967;-75
2022/12/11 05:43:29;;;;;;;50.52;12.75;;;;;;;3.32;100.00;98144.27;1688541;83;21062;-75
2022/12/11 05:45:56;;;;;;;31.80;12.88;;;;;;;3.28;100.00;98141.30;1708078;83;21058;-75
2022/12/11 05:48:24;;;;;;;32.48;12.90;;;;;;;3.30;100.00;98132.42;1688288;84;21003;-73
2022/12/11 05:50:58;;;;;;;21.80;10.82;;;;;;;3.34;100.00;98138.89;1701178;82;20971;-73
2022/12/11 05:53:25;;;;;;;28.50;11.30;;;;;;;3.37;100.00;98134.86;1666018;85;20992;-73
2022/12/11 05:55:52;;;;;;;88.58;12.93;;;;;;;3.38;100.00;98130.57;1728796;81;20952;-73
2022/12/11 05:58:20;;;;;;;31.95;13.35;;;;;;;3.35;100.00;98120.88;1734376;82;20990;-73
2022/12/11 06:00:47;;;;;;;42.00;12.80;;;;;;;3.37;100.00;98121.41;1729236;82;21577;-73
2022/12/11 06:03:14;;;;;;;56.28;12.50;;;;;;;3.43;100.00;98113.65;1732413;82;21518;-73
2022/12/11 06:05:41;;;;;;;54.50;12.58;;;;;;;3.44;100.00;98105.30;1721125;81;20965;-73
2022/12/11 06:08:09;;;;;;;40.92;11.18;;;;;;;3.44;100.00;98099.91;1730938;81;21525;-73
2022/12/11 06:10:36;;;;;;;40.28;10.75;;;;;;;3.50;100.00;98092.68;1732807;82;21446;-73
2022/12/11 06:13:03;;;;;;;43.90;10.88;;;;;;;3.50;100.00;98095.37;1735620;82;21769;-73
2022/12/11 06:15:31;;;;;;;40.92;10.53;;;;;;;3.48;100.00;98086.21;1695160;83;21504;-73
2022/12/11 06:17:58;;;;;;;43.85;11.08;;;;;;;3.53;100.00;98096.18;1693822;83;21613;-73
2022/12/11 06:20:25;;;;;;;23.45;9.23;;;;;;;3.53;100.00;98094.84;1706386;83;20997;-73
2022/12/11 08:49:21;;;;;;;114.90;24.45;;;;;;;4.31;100.00;97826.05;1795646;78;22403;-72
2022/12/11 08:51:48;;;;;;;48.33;18.95;;;;;;;4.43;100.00;97839.98;1737222;80;21101;-72
2022/12/11 08:54:15;;;;;;;33.58;16.73;;;;;;;4.62;100.00;97828.02;1736681;82;21031;-71
2022/12/11 08:56:42;;;;;;;36.95;21.37;;;;;;;4.82;100.00;97830.03;1729529;82;21086;-72
2022/12/11 08:59:09;;;;;;;45.43;26.17;;;;;;;4.96;100.00;97822.11;1742973;82;21039;-72
2022/12/11 09:01:36;;;;;;;92.47;37.75;;;;;;;5.07;100.00;97820.13;1739337;81;21102;-72
2022/12/11 09:04:03;;;;;;;107.85;45.85;;;;;;;5.15;100.00;97810.91;1730749;82;21054;-72
2022/12/11 09:06:33;;;;;;;62.58;28.27;;;;;;;5.24;100.00;97809.77;1735135;82;21062;-72
2022/12/11 09:09:03;;;;;;;93.12;44.27;;;;;;;5.30;100.00;97805.37;1681005;84;21061;-73
2022/12/11 09:11:34;;;;;;;73.37;24.32;;;;;;;5.41;100.00;97806.09;1692926;84;21081;-72
2022/12/11 09:14:02;;;;;;;95.90;41.55;;;;;;;5.46;100.00;97794.69;1696801;84;21072;-73
2022/12/11 09:16:30;;;;;;;49.50;28.87;;;;;;;5.53;100.00;97788.16;1681149;84;21667;-72
2022/12/11 09:18:58;;;;;;;36.50;12.28;;;;;;;5.58;100.00;97783.50;1691499;83;21785;-72
2022/12/11 09:21:28;;;;;;;63.83;33.85;;;;;;;5.64;100.00;97774.80;1687040;84;21541;-73
2022/12/11 09:23:58;;;;;;;39.18;23.22;;;;;;;5.69;100.00;97765.30;1685505;84;21105;-72
2022/12/11 09:26:26;;;;;;;43.78;18.35;;;;;;;5.71;100.00;97758.52;1660955;84;21067;-72
2022/12/11 09:28:54;;;;;;;32.35;9.60;;;;;;;5.76;100.00;97754.95;1698669;84;21641;-72
2022/12/11 09:31:27;;;;;;;41.02;26.15;;;;;;;5.78;100.00;97748.17;1688648;84;21050;-72
2022/12/11 09:33:58;;;;;;;133.40;75.17;;;;;;;5.81;100.00;97744.11;1701206;84;21090;-72
2022/12/11 09:36:26;;;;;;;56.95;28.87;;;;;;;5.77;100.00;97735.78;1691520;84;21082;-72
2022/12/11 09:38:55;;;;;;;31.73;14.83;;;;;;;5.80;100.00;97737.91;1693937;84;21078;-72
2022/12/11 09:41:39;;;;;;;44.27;21.27;;;;;;;5.78;100.00;97731.97;1709845;84;21057;-71
2022/12/11 09:44:36;;;;;;;84.55;44.83;;;;;;;5.76;100.00;97723.37;1686142;84;21113;-73
2022/12/11 09:47:19;;;;;;;46.65;24.60;;;;;;;5.74;100.00;97712.03;1689252;84;21169;-72
2022/12/11 09:49:53;;;;;;;57.90;14.55;;;;;;;5.76;100.00;97714.45;1695475;83;21069;-72
2022/12/11 09:52:30;;;;;;;26.42;17.50;;;;;;;5.78;100.00;97698.77;1694325;83;21080;-72
2022/12/11 09:55:06;;;;;;;27.70;15.53;;;;;;;5.76;100.00;97696.91;1696501;83;21044;-72
2022/12/11 09:57:58;;;;;;;20.67;8.50;;;;;;;5.76;100.00;97691.52;1700189;83;21143;-72
2022/12/11 10:00:50;;;;;;;18.23;9.53;;;;;;;5.73;100.00;97678.59;1705019;83;21162;-73
2022/12/11 10:03:39;;;;;;;35.28;17.73;;;;;;;5.69;100.00;97675.67;1684993;84;21081;-72
2022/12/11 10:06:28;;;;;;;55.67;20.77;;;;;;;5.71;100.00;97660.52;1661908;84;21125;-73
2022/12/11 10:09:16;;;;;;;26.00;9.83;;;;;;;5.72;100.00;97652.69;1687269;84;21396;-72
2022/12/11 10:12:13;;;;;;;22.90;7.83;;;;;;;5.73;100.00;97647.01;1682795;84;21591;-72
2022/12/11 10:14:51;;;;;;;45.92;8.83;;;;;;;5.74;100.00;97637.80;1697483;83;21069;-73
2022/12/11 10:17:28;;;;;;;26.10;8.13;;;;;;;5.78;100.00;97629.91;1681608;83;21000;-71
2022/12/11 10:19:57;;;;;;;37.98;8.38;;;;;;;5.75;100.00;97629.16;1694579;83;21091;-71
2022/12/11 10:22:28;;;;;;;28.50;7.55;;;;;;;5.80;100.00;97627.20;1680380;84;21030;-77
2022/12/11 10:25:01;;;;;;;28.00;7.25;;;;;;;5.85;100.00;97612.80;1680333;84;21585;-77
2022/12/11 10:27:30;;;;;;;20.40;6.35;;;;;;;5.90;100.00;97609.53;1677345;84;21090;-77
2022/12/11 10:30:09;;;;;;;21.00;6.92;;;;;;;5.95;100.00;97605.96;1716278;83;21061;-77
2022/12/11 10:32:53;;;;;;;15.65;6.30;;;;;;;5.97;100.00;97599.16;1718157;82;22166;-77
2022/12/11 10:35:38;;;;;;;26.17;7.25;;;;;;;6.01;100.00;97592.63;1683806;83;21070;-77
2022/12/11 10:38:28;;;;;;;28.95;8.33;;;;;;;6.02;100.00;97583.44;1704790;83;21018;-76
2022/12/11 10:41:00;;;;;;;24.35;10.75;;;;;;;6.07;100.00;97578.48;1721103;83;21714;-77
2022/12/11 10:43:42;;;;;;;16.40;6.97;;;;;;;6.10;100.00;97570.59;1698891;84;21098;-77
2022/12/11 10:46:27;;;;;;;18.05;7.15;;;;;;;6.12;100.00;97565.70;1692216;84;21149;-77
2022/12/11 10:48:56;;;;;;;13.32;6.00;;;;;;;6.16;100.00;97559.98;1689319;83;21199;-77
2022/12/11 10:51:33;;;;;;;14.55;7.97;;;;;;;6.18;100.00;97561.02;1716613;83;21096;-77
2022/12/11 10:54:29;;;;;;;13.95;6.72;;;;;;;6.21;100.00;97554.47;1700279;83;21100;-77
2022/12/11 10:56:56;;;;;;;17.65;6.87;;;;;;;6.25;100.00;97547.92;1702622;83;21100;-75
2022/12/11 10:59:43;;;;;;;13.62;4.80;;;;;;;6.28;100.00;97538.67;1690775;83;21455;-75
2022/12/11 11:02:31;;;;;;;9.30;5.30;;;;;;;6.32;100.00;97543.74;1710110;83;22201;-76
2022/12/11 11:05:00;;;;;;;7.00;4.83;;;;;;;6.36;100.00;97531.79;1700864;83;21095;-78
2022/12/11 11:07:30;;;;;;;8.25;4.95;;;;;;;6.42;100.00;97530.05;1706823;83;20994;-78
2022/12/11 11:10:16;;;;;;;7.33;4.95;;;;;;;6.48;100.00;97534.83;1702557;80;70033;-73
2022/12/11 11:12:48;;;;;;;6.08;4.42;;;;;;;6.52;100.00;97524.22;1724551;81;21022;-73
2022/12/11 11:15:20;;;;;;;6.55;4.47;;;;;;;6.57;100.00;97525.45;1729242;81;21585;-73
2022/12/11 11:17:55;;;;;;;11.18;5.35;;;;;;;6.63;100.00;97513.44;1739079;82;21534;-74
2022/12/11 11:20:26;;;;;;;6.33;5.30;;;;;;;6.69;100.00;97504.15;1728112;82;21608;-73
2022/12/11 11:22:57;;;;;;;7.22;5.00;;;;;;;6.78;100.00;97505.03;1694231;83;21617;-73
2022/12/11 11:25:26;;;;;;;10.90;5.67;;;;;;;6.85;100.00;97501.37;1693056;84;21051;-74
2022/12/11 11:28:17;;;;;;;7.87;5.45;;;;;;;6.89;100.00;97492.92;1692730;83;21522;-73
2022/12/11 11:30:58;;;;;;;7.45;5.65;;;;;;;6.95;100.00;97493.05;1693542;83;21075;-73
2022/12/11 11:33:25;;;;;;;9.63;7.58;;;;;;;7.03;100.00;97493.70;1693813;84;21043;-74
2022/12/11 11:35:59;;;;;;;7.08;6.12;;;;;;;7.10;100.00;97481.92;1693706;84;21697;-74
2022/12/11 11:38:33;;;;;;;7.78;5.92;;;;;;;7.19;100.00;97485.50;1692855;83;21021;-75
2022/12/11 11:41:14;;;;;;;7.62;5.55;;;;;;;7.25;100.00;97478.08;1697970;83;21065;-74
2022/12/11 11:43:53;;;;;;;8.33;6.53;;;;;;;7.33;100.00;97482.78;1712173;83;21062;-74
2022/12/11 11:46:35;;;;;;;6.17;4.95;;;;;;;7.39;100.00;97471.53;1716126;83;21558;-74
2022/12/11 11:49:29;;;;;;;5.78;4.80;;;;;;;7.47;100.00;97465.95;1706447;83;21019;-74
2022/12/11 11:52:31;;;;;;;6.62;5.03;;;;;;;7.59;100.00;97461.31;1687146;83;21068;-73
2022/12/11 11:55:14;;;;;;;5.62;4.37;;;;;;;7.75;100.00;97459.31;1691461;83;21094;-74
2022/12/11 11:57:55;;;;;;;11.85;9.33;;;;;;;7.86;100.00;97455.25;1692755;85;21063;-74
2022/12/11 12:00:25;;;;;;;4.67;3.65;;;;;;;8.01;100.00;97449.42;1656351;85;21556;-75
2022/12/11 12:02:56;;;;;;;4.85;3.00;;;;;;;8.19;100.00;97438.11;1685797;83;21039;-74
2022/12/11 12:05:28;;;;;;;4.53;3.33;;;;;;;8.36;100.00;97438.22;1687215;84;21597;-73
2022/12/11 12:08:34;;;;;;;3.67;2.50;;;;;;;8.49;100.00;97430.56;1668585;85;21026;-72
2022/12/11 12:11:29;;;;;;;4.17;3.22;;;;;;;8.64;100.00;97442.09;1674310;84;21099;-73
2022/12/11 12:14:08;;;;;;;9.50;6.83;;;;;;;8.70;100.00;97433.49;1660550;86;21528;-74
2022/12/11 12:16:55;;;;;;;16.60;9.50;;;;;;;8.77;100.00;97428.95;1662711;85;21155;-74
2022/12/11 12:19:36;;;;;;;4.60;2.80;;;;;;;8.81;100.00;97419.88;1680521;85;21059;-74
2022/12/11 12:22:33;;;;;;;2.98;2.00;;;;;;;8.83;100.00;97424.42;1629444;87;21079;-74
2022/12/11 12:25:18;;;;;;;4.28;2.72;;;;;;;8.92;100.00;97413.59;1657452;86;21090;-74
2022/12/11 12:27:51;;;;;;;4.00;2.67;;;;;;;8.99;100.00;97407.95;1730871;82;21553;-73
2022/12/11 12:30:18;;;;;;;2.92;2.30;;;;;;;9.04;100.00;97397.47;1735719;82;21052;-74
2022/12/11 12:33:05;;;;;;;5.17;2.37;;;;;;;9.08;100.00;97411.20;1725812;83;20988;-73
2022/12/11 12:36:12;;;;;;;3.72;2.60;;;;;;;9.10;100.00;97411.16;1719489;82;21162;-73
2022/12/11 12:38:44;;;;;;;3.33;2.27;;;;;;;9.16;100.00;97408.52;1738665;82;21518;-73
2022/12/11 12:41:19;;;;;;;3.65;2.30;;;;;;;9.18;100.00;97406.27;1696914;84;21098;-73
2022/12/11 12:44:16;;;;;;;3.58;2.37;;;;;;;9.22;100.00;97405.06;1720784;83;21648;-73
2022/12/11 12:47:08;;;;;;;3.47;2.10;;;;;;;9.28;100.00;97400.52;1642996;86;21422;-73
2022/12/11 12:49:45;;;;;;;3.05;2.17;;;;;;;9.31;100.00;97399.09;1718379;82;21095;-72
2022/12/11 12:52:20;;;;;;;2.30;1.77;;;;;;;9.31;100.00;97397.19;1737964;82;21593;-73
2022/12/11 12:57:35;;;;;;;6.72;3.98;;;;;;;9.32;100.00;97389.26;1738011;82;20984;-72
2022/12/11 13:00:05;;;;;;;4.70;2.75;;;;;;;9.37;100.00;97382.88;1694316;83;21053;-72
2022/12/11 13:02:32;;;;;;;4.17;2.52;;;;;;;9.40;100.00;97383.03;1725205;83;21020;-72
2022/12/11 13:05:03;;;;;;;4.45;2.62;;;;;;;9.43;100.00;97380.23;1724117;82;21129;-72
2022/12/11 13:07:31;;;;;;;5.12;2.98;;;;;;;9.46;100.00;97379.58;1721991;82;21065;-73
2022/12/11 13:10:06;;;;;;;3.02;2.00;;;;;;;9.47;100.00;97368.41;1728466;82;21740;-73
2022/12/11 13:12:44;;;;;;;3.12;2.00;;;;;;;9.48;100.00;97386.86;1736525;82;21577;-73
2022/12/11 13:15:39;;;;;;;4.67;3.02;;;;;;;9.47;100.00;97371.13;1733124;81;21413;-73
2022/12/11 13:18:35;;;;;;;3.87;2.33;;;;;;;9.48;100.00;97375.45;1733477;82;21056;-72
2022/12/11 13:21:05;;;;;;;3.40;1.85;;;;;;;9.48;100.00;97367.86;1651922;82;21170;-73
2022/12/11 13:23:33;;;;;;;2.67;1.50;;;;;;;9.47;100.00;97363.53;1731703;82;22197;-72
2022/12/11 13:26:02;;;;;;;3.65;2.00;;;;;;;9.47;100.00;97358.91;1738518;81;21094;-73
2022/12/11 13:28:44;;;;;;;4.03;1.90;;;;;;;9.54;100.00;97360.33;1735597;81;21024;-72
2022/12/11 13:31:19;;;;;;;3.22;1.72;;;;;;;9.57;100.00;97367.27;1737188;82;21048;-72
2022/12/11 13:33:52;;;;;;;2.83;1.40;;;;;;;9.57;100.00;97361.84;1736103;81;21036;-72
2022/12/11 13:36:24;;;;;;;2.77;1.67;;;;;;;9.57;100.00;97361.03;1733865;82;21032;-72
2022/12/11 13:38:55;;;;;;;2.62;1.72;;;;;;;9.57;100.00;97357.77;1737634;82;21076;-72
2022/12/11 13:41:22;;;;;;;3.00;2.00;;;;;;;9.58;100.00;97348.50;1737195;82;21031;-72
2022/12/11 13:43:50;;;;;;;2.87;2.00;;;;;;;9.59;100.00;97351.47;1738728;81;21067;-72
2022/12/11 13:46:30;;;;;;;3.98;2.00;;;;;;;9.59;100.00;97343.88;1731378;82;21054;-73
2022/12/11 13:49:01;;;;;;;2.20;1.60;;;;;;;9.61;100.00;97351.13;1734594;83;21034;-72
2022/12/11 13:51:30;;;;;;;2.85;1.62;;;;;;;9.64;100.00;97340.41;1734182;83;21101;-72
2022/12/11 13:54:17;;;;;;;2.50;1.90;;;;;;;9.66;100.00;97344.17;1742307;81;21026;-72
2022/12/11 13:56:56;;;;;;;2.92;1.95;;;;;;;9.66;100.00;97344.98;1733028;82;21066;-73
2022/12/11 13:59:27;;;;;;;3.25;2.08;;;;;;;9.65;100.00;97339.86;1734392;83;21030;-72
2022/12/11 14:01:56;;;;;;;3.45;2.10;;;;;;;9.65;100.00;97342.02;1734444;83;21011;-72
2022/12/11 14:04:23;;;;;;;3.15;1.87;;;;;;;9.65;100.00;97339.30;1733816;81;21545;-72
2022/12/11 14:06:50;;;;;;;3.77;2.67;;;;;;;9.65;100.00;97348.81;1726769;82;21423;-72
2022/12/11 14:09:20;;;;;;;3.30;2.17;;;;;;;9.67;100.00;97352.57;1733919;83;21550;-72
2022/12/11 14:11:48;;;;;;;4.67;2.22;;;;;;;9.70;100.00;97347.84;1734293;81;21119;-72
2022/12/11 14:14:20;;;;;;;3.85;2.50;;;;;;;9.70;100.00;97345.94;1734456;82;21050;-72
2022/12/11 14:16:49;;;;;;;3.55;2.60;;;;;;;9.71;100.00;97335.84;1734178;83;21026;-72
2022/12/11 14:19:19;;;;;;;5.30;3.75;;;;;;;9.70;100.00;97343.77;1734581;83;21089;-72
2022/12/11 14:22:03;;;;;;;3.95;2.50;;;;;;;9.70;100.00;97341.06;1736582;82;21043;-72
2022/12/11 14:24:31;;;;;;;4.90;2.98;;;;;;;9.70;100.00;97343.22;1741822;82;21099;-72
2022/12/11 14:26:58;;;;;;;6.17;2.72;;;;;;;9.70;100.00;97335.06;1733778;82;21046;-72
2022/12/11 14:29:32;;;;;;;5.55;2.40;;;;;;;9.72;100.00;97339.60;1732851;83;21093;-72
2022/12/11 14:32:03;;;;;;;4.28;2.47;;;;;;;9.73;100.00;97335.77;1743051;81;21027;-72
2022/12/11 18:29:31;;;;;;;3.75;3.02;;;;;;;8.39;100.00;97428.13;1797757;78;23046;-70
2022/12/11 18:31:58;;;;;;;2.98;2.30;;;;;;;8.04;100.00;97442.60;1775402;80;21561;-69
2022/12/11 18:34:25;;;;;;;3.17;2.20;;;;;;;7.81;100.00;97440.46;1767162;80;21061;-70
2022/12/11 18:36:53;;;;;;;2.50;1.62;;;;;;;7.61;100.00;97461.28;1779902;80;21549;-69
2022/12/11 18:39:20;;;;;;;2.95;1.90;;;;;;;7.33;100.00;97464.61;1765675;80;21061;-70
2022/12/11 18:41:47;;;;;;;2.77;2.00;;;;;;;7.12;100.00;97470.23;1782261;80;21454;-69
2022/12/11 18:44:15;;;;;;;2.25;1.50;;;;;;;6.95;100.00;97472.22;1765364;80;21031;-69
2022/12/11 18:46:42;;;;;;;1.85;1.52;;;;;;;6.76;100.00;97476.97;1776918;80;20982;-70
2022/12/11 18:49:09;;;;;;;2.42;1.82;;;;;;;6.59;100.00;97485.43;1732394;81;20987;-69
2022/12/11 18:51:36;;;;;;;3.17;1.90;;;;;;;6.45;100.00;97488.91;1771601;80;21018;-69
2022/12/11 18:54:03;;;;;;;2.70;1.80;;;;;;;6.35;100.00;97492.34;1759461;80;21034;-68
2022/12/11 18:56:32;;;;;;;2.42;1.80;;;;;;;6.21;100.00;97496.93;1765007;80;21003;-69
2022/12/11 18:58:59;;;;;;;2.72;2.10;;;;;;;6.14;100.00;97499.22;1761679;80;21003;-69
2022/12/11 19:01:27;;;;;;;3.62;2.55;;;;;;;6.06;100.00;97502.05;1760993;81;21048;-69
2022/12/11 19:03:57;;;;;;;3.67;2.65;;;;;;;5.97;100.00;97510.58;1765997;80;21018;-68
2022/12/11 19:06:27;;;;;;;3.85;2.50;;;;;;;5.83;100.00;97513.21;1768643;80;21059;-68
2022/12/11 19:08:58;;;;;;;5.37;3.50;;;;;;;5.75;100.00;97525.22;1760406;80;20986;-68
2022/12/11 19:11:28;;;;;;;5.15;3.80;;;;;;;5.71;100.00;97530.40;1786191;80;21031;-68
2022/12/11 19:13:57;;;;;;;4.58;3.27;;;;;;;5.64;100.00;97539.95;1764351;80;21018;-69
2022/12/11 19:16:32;;;;;;;5.72;3.65;;;;;;;5.58;100.00;97545.99;1762371;80;21451;-69
2022/12/11 19:19:00;;;;;;;5.17;3.45;;;;;;;5.55;100.00;97552.52;1767543;80;20999;-69
2022/12/11 19:21:27;;;;;;;6.50;3.47;;;;;;;5.50;100.00;97561.48;1768101;80;21450;-69
2022/12/11 19:23:54;;;;;;;5.03;3.65;;;;;;;5.41;100.00;97552.45;1782727;80;21038;-68
2022/12/11 19:26:22;;;;;;;5.08;3.40;;;;;;;5.36;100.00;97563.30;1761842;80;21691;-69
2022/12/11 19:28:51;;;;;;;4.60;3.40;;;;;;;5.32;100.00;97567.13;1769001;80;21641;-69
2022/12/11 19:31:21;;;;;;;6.42;4.17;;;;;;;5.25;100.00;97580.16;1759866;81;21059;-68
2022/12/11 19:33:49;;;;;;;6.40;3.85;;;;;;;5.21;100.00;97589.92;1745561;82;21098;-69
2022/12/11 19:36:19;;;;;;;6.70;4.60;;;;;;;5.19;100.00;97592.66;1750471;80;21026;-69
2022/12/11 19:38:47;;;;;;;6.47;4.65;;;;;;;5.14;100.00;97590.02;1750142;80;21066;-69
2022/12/11 19:44:07;;;;;;;7.08;5.00;;;;;;;4.98;100.00;97617.17;1708222;81;21969;-72
2022/12/11 19:46:34;;;;;;;7.45;4.80;;;;;;;4.90;100.00;97621.03;1669108;86;21031;-72
2022/12/11 19:49:01;;;;;;;6.25;4.15;;;;;;;4.82;100.00;97629.73;1737317;82;20964;-72
2022/12/11 19:51:32;;;;;;;5.97;4.12;;;;;;;4.76;100.00;97637.63;1721019;83;21660;-72
2022/12/11 19:54:01;;;;;;;4.80;3.72;;;;;;;4.71;100.00;97637.69;1717872;83;21083;-72
2022/12/11 19:56:29;;;;;;;6.35;4.22;;;;;;;4.62;100.00;97644.77;1678830;84;21183;-72
2022/12/11 19:58:57;;;;;;;5.85;3.80;;;;;;;4.50;100.00;97648.64;1725861;83;20965;-71
2022/12/11 20:01:27;;;;;;;5.30;3.65;;;;;;;4.45;100.00;97649.23;1729763;83;21074;-72
2022/12/11 20:03:58;;;;;;;6.50;4.00;;;;;;;4.44;100.00;97648.43;1693984;84;21077;-73
2022/12/11 20:06:30;;;;;;;4.62;3.55;;;;;;;4.38;100.00;97654.95;1715404;83;21038;-73
2022/12/11 20:08:57;;;;;;;6.12;4.10;;;;;;;4.35;100.00;97670.88;1720773;83;20962;-73
2022/12/11 20:11:24;;;;;;;4.95;3.70;;;;;;;4.33;100.00;97679.77;1728779;83;21008;-74
2022/12/11 20:13:54;;;;;;;5.25;3.60;;;;;;;4.30;100.00;97680.33;1708611;83;21823;-73
2022/12/11 20:16:21;;;;;;;4.45;3.40;;;;;;;4.23;100.00;97688.73;1688820;83;21027;-74
2022/12/11 20:18:49;;;;;;;3.75;3.25;;;;;;;4.25;100.00;97689.81;1730151;83;21042;-74
2022/12/11 20:21:19;;;;;;;5.00;3.30;;;;;;;4.24;100.00;97689.54;1729144;81;20988;-76
2022/12/11 20:23:46;;;;;;;4.22;3.42;;;;;;;4.20;100.00;97686.60;1732524;81;20989;-76
2022/12/11 20:26:18;;;;;;;3.98;3.20;;;;;;;4.11;100.00;97685.56;1712687;83;21028;-77
2022/12/11 20:28:50;;;;;;;4.70;3.40;;;;;;;4.08;100.00;97682.63;1711696;83;21044;-76
2022/12/11 20:31:20;;;;;;;4.60;3.40;;;;;;;4.04;100.00;97681.04;1721180;81;21538;-76
2022/12/11 20:33:51;;;;;;;4.85;3.33;;;;;;;3.95;100.00;97674.11;1726857;83;21582;-77
2022/12/11 20:36:19;;;;;;;4.25;3.10;;;;;;;3.93;100.00;97672.22;1732828;81;21034;-75
2022/12/11 20:38:46;;;;;;;4.78;3.67;;;;;;;3.92;100.00;97661.22;1691660;83;21091;-76
2022/12/11 20:41:15;;;;;;;4.12;3.25;;;;;;;3.88;100.00;97644.55;1658170;86;21034;-75
2022/12/11 20:43:43;;;;;;;5.08;3.08;;;;;;;3.76;100.00;97650.80;1725512;81;21667;-75
2022/12/11 20:46:12;;;;;;;4.45;3.70;;;;;;;3.67;100.00;97653.28;1736589;81;21401;-75
2022/12/11 20:48:39;;;;;;;4.70;3.20;;;;;;;3.69;100.00;97657.03;1731229;82;22398;-75
2022/12/11 20:51:07;;;;;;;7.05;3.70;;;;;;;3.65;100.00;97671.58;1723411;81;21003;-75
2022/12/11 20:53:35;;;;;;;4.83;3.80;;;;;;;3.59;100.00;97674.03;1708623;81;21077;-75
2022/12/11 20:56:12;;;;;;;4.72;3.47;;;;;;;3.54;100.00;97692.09;1724269;81;20971;-77
2022/12/11 20:58:39;;;;;;;3.80;2.98;;;;;;;3.51;100.00;97700.97;1728482;82;21059;-76
2022/12/11 21:01:14;;;;;;;4.30;3.20;;;;;;;3.49;100.00;97707.17;1725459;82;21528;-76
2022/12/11 21:03:41;;;;;;;4.58;3.20;;;;;;;3.47;100.00;97709.32;1699006;83;21093;-75
2022/12/11 21:06:12;;;;;;;4.40;3.22;;;;;;;3.44;100.00;97713.09;1733598;81;20979;-75
2022/12/11 21:08:39;;;;;;;4.40;3.10;;;;;;;3.40;100.00;97715.53;1727174;81;21910;-76
2022/12/11 21:11:06;;;;;;;3.45;2.60;;;;;;;3.38;100.00;97714.20;1745658;82;21007;-75
2022/12/11 21:13:35;;;;;;;4.15;3.00;;;;;;;3.28;100.00;97725.81;1748324;81;21109;-75
2022/12/11 21:16:05;;;;;;;3.35;2.42;;;;;;;3.14;100.00;97726.11;1733079;82;21059;-75
2022/12/11 21:18:33;;;;;;;2.92;2.12;;;;;;;2.96;100.00;97733.40;1741594;82;21094;-75
2022/12/11 21:21:00;;;;;;;3.22;2.00;;;;;;;2.82;100.00;97725.62;1731551;82;21046;-76
2022/12/11 21:23:27;;;;;;;2.87;2.17;;;;;;;2.75;100.00;97731.27;1728758;82;21113;-75
2022/12/11 21:25:54;;;;;;;2.83;1.80;;;;;;;2.70;100.00;97736.64;1718891;82;21057;-75
2022/12/11 21:28:21;;;;;;;2.40;1.80;;;;;;;2.61;100.00;97754.38;1724526;83;21136;-75
2022/12/11 21:30:48;;;;;;;2.10;1.60;;;;;;;2.59;100.00;97751.14;1719765;83;20990;-75
2022/12/11 21:33:16;;;;;;;1.70;1.22;;;;;;;2.55;100.00;97747.38;1716161;82;21097;-75
2022/12/11 21:35:44;;;;;;;4.05;1.45;;;;;;;2.46;100.00;97753.02;1721889;82;21083;-75